sensor_id;sensor_type;location;lat;lon;timestamp;temperature;humidity
15481;DHT22;7842;50.904;6.670;2022-08-11T00:07:49;22.30;99.90
15481;DHT22;7842;50.904;6.670;2022-08-11T00:10:21;22.30;99.90
15481;DHT22;7842;50.904;6.670;2022-08-11T00:12:58;22.30;99.90
15481;DHT22;7842;50.904;6.670;2022-08-11T00:18:01;22.10;99.90
15481;DHT22;7842;50.904;6.670;2022-08-11T00:20:32;22.10;99.90
15481;DHT22;7842;50.904;6.670;2022-08-11T00:30:20;21.90;99.90
15481;DHT22;7842;50.904;6.670;2022-08-11T00:32:54;21.90;99.90
15481;DHT22;7842;50.904;6.670;2022-08-11T00:37:52;21.90;99.90
15481;DHT22;7842;50.904;6.670;2022-08-11T00:40:54;21.80;99.90
15481;DHT22;7842;50.904;6.670;2022-08-11T00:51:48;21.60;99.90
15481;DHT22;7842;50.904;6.670;2022-08-11T01:00:13;21.60;99.90
15481;DHT22;7842;50.904;6.670;2022-08-11T01:11:58;21.40;99.90
15481;DHT22;7842;50.904;6.670;2022-08-11T01:23:57;21.10;99.90
15481;DHT22;7842;50.904;6.670;2022-08-11T01:51:22;20.90;99.90
15481;DHT22;7842;50.904;6.670;2022-08-11T01:59:27;20.70;99.90
15481;DHT22;7842;50.904;6.670;2022-08-11T02:07:27;20.60;99.90
15481;DHT22;7842;50.904;6.670;2022-08-11T02:20:50;20.40;99.90
15481;DHT22;7842;50.904;6.670;2022-08-11T02:26:30;20.30;99.90
15481;DHT22;7842;50.904;6.670;2022-08-11T02:45:36;20.10;99.90
15481;DHT22;7842;50.904;6.670;2022-08-11T02:48:13;20.10;99.90
15481;DHT22;7842;50.904;6.670;2022-08-11T03:21:18;19.50;99.90
15481;DHT22;7842;50.904;6.670;2022-08-11T03:29:20;19.30;99.90
15481;DHT22;7842;50.904;6.670;2022-08-11T03:32:18;19.30;99.90
15481;DHT22;7842;50.904;6.670;2022-08-11T03:37:40;19.30;99.90
15481;DHT22;7842;50.904;6.670;2022-08-11T03:54:53;19.10;99.90
15481;DHT22;7842;50.904;6.670;2022-08-11T04:41:22;17.50;99.90
15481;DHT22;7842;50.904;6.670;2022-08-11T04:44:19;17.60;99.90
15481;DHT22;7842;50.904;6.670;2022-08-11T04:50:19;19.20;99.90
15481;DHT22;7842;50.904;6.670;2022-08-11T04:53:41;20.00;99.90
15481;DHT22;7842;50.904;6.670;2022-08-11T04:56:30;20.40;99.90
15481;DHT22;7842;50.904;6.670;2022-08-11T05:16:53;22.30;99.90
15481;DHT22;7842;50.904;6.670;2022-08-11T05:19:44;22.50;99.90
15481;DHT22;7842;50.904;6.670;2022-08-11T05:22:30;22.90;99.90
15481;DHT22;7842;50.904;6.670;2022-08-11T05:25:24;23.70;99.90
15481;DHT22;7842;50.904;6.670;2022-08-11T05:31:37;23.60;99.90
15481;DHT22;7842;50.904;6.670;2022-08-11T05:34:28;23.90;99.90
15481;DHT22;7842;50.904;6.670;2022-08-11T05:37:21;23.60;99.90
15481;DHT22;7842;50.904;6.670;2022-08-11T05:39:50;24.00;99.90
15481;DHT22;7842;50.904;6.670;2022-08-11T05:42:42;24.60;99.90
15481;DHT22;7842;50.904;6.670;2022-08-11T05:45:27;24.60;99.90
15481;DHT22;7842;50.904;6.670;2022-08-11T05:48:12;24.60;99.90
15481;DHT22;7842;50.904;6.670;2022-08-11T05:50:59;25.00;99.90
15481;DHT22;7842;50.904;6.670;2022-08-11T05:53:55;25.30;99.90
15481;DHT22;7842;50.904;6.670;2022-08-11T05:56:49;25.80;99.90
15481;DHT22;7842;50.904;6.670;2022-08-11T05:59:18;26.10;99.90
15481;DHT22;7842;50.904;6.670;2022-08-11T06:01:46;25.60;99.90
15481;DHT22;7842;50.904;6.670;2022-08-11T06:04:23;25.60;99.90
15481;DHT22;7842;50.904;6.670;2022-08-11T06:09:27;25.20;99.90
15481;DHT22;7842;50.904;6.670;2022-08-11T06:11:55;25.20;99.90
15481;DHT22;7842;50.904;6.670;2022-08-11T06:14:22;25.60;99.90
15481;DHT22;7842;50.904;6.670;2022-08-11T06:16:52;25.80;99.90
15481;DHT22;7842;50.904;6.670;2022-08-11T06:19:20;26.30;99.90
15481;DHT22;7842;50.904;6.670;2022-08-11T06:21:48;26.70;99.90
15481;DHT22;7842;50.904;6.670;2022-08-11T06:24:16;27.20;99.90
15481;DHT22;7842;50.904;6.670;2022-08-11T06:26:51;27.40;99.90
15481;DHT22;7842;50.904;6.670;2022-08-11T06:29:18;28.00;99.90
15481;DHT22;7842;50.904;6.670;2022-08-11T06:31:57;26.60;99.90
15481;DHT22;7842;50.904;6.670;2022-08-11T06:34:33;26.10;99.90
15481;DHT22;7842;50.904;6.670;2022-08-11T06:40:00;26.70;99.90
15481;DHT22;7842;50.904;6.670;2022-08-11T06:42:36;26.70;99.90
15481;DHT22;7842;50.904;6.670;2022-08-11T06:47:46;26.90;99.90
15481;DHT22;7842;50.904;6.670;2022-08-11T06:50:18;26.80;99.90
15481;DHT22;7842;50.904;6.670;2022-08-11T06:53:05;26.90;99.90
15481;DHT22;7842;50.904;6.670;2022-08-11T06:55:34;27.00;99.90
15481;DHT22;7842;50.904;6.670;2022-08-11T06:58:20;26.90;99.90
15481;DHT22;7842;50.904;6.670;2022-08-11T07:01:11;26.90;99.90
15481;DHT22;7842;50.904;6.670;2022-08-11T07:03:42;27.10;99.90
15481;DHT22;7842;50.904;6.670;2022-08-11T07:07:05;26.90;99.90
15481;DHT22;7842;50.904;6.670;2022-08-11T07:09:31;26.80;99.90
15481;DHT22;7842;50.904;6.670;2022-08-11T07:12:44;26.50;99.90
15481;DHT22;7842;50.904;6.670;2022-08-11T07:15:32;25.80;99.90
15481;DHT22;7842;50.904;6.670;2022-08-11T07:18:30;25.70;99.90
15481;DHT22;7842;50.904;6.670;2022-08-11T07:21:29;25.50;99.90
15481;DHT22;7842;50.904;6.670;2022-08-11T07:24:17;25.50;99.90
15481;DHT22;7842;50.904;6.670;2022-08-11T07:27:04;25.40;99.90
15481;DHT22;7842;50.904;6.670;2022-08-11T07:29:50;25.50;99.90
15481;DHT22;7842;50.904;6.670;2022-08-11T07:32:29;25.50;99.90
15481;DHT22;7842;50.904;6.670;2022-08-11T07:35:09;25.60;99.90
15481;DHT22;7842;50.904;6.670;2022-08-11T07:37:42;25.80;99.90
15481;DHT22;7842;50.904;6.670;2022-08-11T07:40:10;25.90;99.90
15481;DHT22;7842;50.904;6.670;2022-08-11T07:45:05;26.00;99.90
15481;DHT22;7842;50.904;6.670;2022-08-11T07:47:51;26.00;99.90
15481;DHT22;7842;50.904;6.670;2022-08-11T07:50:40;25.90;99.90
15481;DHT22;7842;50.904;6.670;2022-08-11T07:53:25;26.10;99.90
15481;DHT22;7842;50.904;6.670;2022-08-11T07:55:54;26.10;99.90
15481;DHT22;7842;50.904;6.670;2022-08-11T07:58:22;26.40;99.90
15481;DHT22;7842;50.904;6.670;2022-08-11T08:14:54;27.00;99.90
15481;DHT22;7842;50.904;6.670;2022-08-11T08:17:41;27.90;99.90
15481;DHT22;7842;50.904;6.670;2022-08-11T08:20:16;27.20;99.90
15481;DHT22;7842;50.904;6.670;2022-08-11T08:23:05;27.30;99.90
15481;DHT22;7842;50.904;6.670;2022-08-11T08:25:35;27.50;99.90
15481;DHT22;7842;50.904;6.670;2022-08-11T08:28:05;27.40;99.90
15481;DHT22;7842;50.904;6.670;2022-08-11T08:30:31;27.40;99.90
15481;DHT22;7842;50.904;6.670;2022-08-11T09:15:32;28.70;99.90
15481;DHT22;7842;50.904;6.670;2022-08-11T09:18:00;28.60;99.90
15481;DHT22;7842;50.904;6.670;2022-08-11T09:20:35;28.50;99.60
15481;DHT22;7842;50.904;6.670;2022-08-11T09:23:04;28.60;99.90
15481;DHT22;7842;50.904;6.670;2022-08-11T09:25:51;28.80;99.50
15481;DHT22;7842;50.904;6.670;2022-08-11T09:28:36;28.80;98.80
15481;DHT22;7842;50.904;6.670;2022-08-11T09:31:04;29.00;98.10
15481;DHT22;7842;50.904;6.670;2022-08-11T09:35:57;29.30;98.60
15481;DHT22;7842;50.904;6.670;2022-08-11T09:38:44;29.40;97.50
15481;DHT22;7842;50.904;6.670;2022-08-11T09:41:30;29.50;97.30
15481;DHT22;7842;50.904;6.670;2022-08-11T11:07:06;30.00;80.80
15481;DHT22;7842;50.904;6.670;2022-08-11T11:09:46;29.80;80.80
15481;DHT22;7842;50.904;6.670;2022-08-11T11:15:08;29.90;82.30
15481;DHT22;7842;50.904;6.670;2022-08-11T11:31:49;29.80;82.10
15481;DHT22;7842;50.904;6.670;2022-08-11T11:37:13;29.90;81.10
15481;DHT22;7842;50.904;6.670;2022-08-11T11:39:41;29.90;80.30
15481;DHT22;7842;50.904;6.670;2022-08-11T11:42:11;29.80;81.10
15481;DHT22;7842;50.904;6.670;2022-08-11T11:44:43;29.80;80.40
15481;DHT22;7842;50.904;6.670;2022-08-11T11:47:13;30.00;81.10
15481;DHT22;7842;50.904;6.670;2022-08-11T11:49:41;30.10;80.00
15481;DHT22;7842;50.904;6.670;2022-08-11T11:52:16;30.00;80.60
15481;DHT22;7842;50.904;6.670;2022-08-11T11:54:45;30.20;78.80
15481;DHT22;7842;50.904;6.670;2022-08-11T11:57:16;30.20;78.70
15481;DHT22;7842;50.904;6.670;2022-08-11T12:00:01;30.40;78.50
15481;DHT22;7842;50.904;6.670;2022-08-11T12:02:46;30.60;79.10
15481;DHT22;7842;50.904;6.670;2022-08-11T12:05:12;30.70;78.90
15481;DHT22;7842;50.904;6.670;2022-08-11T12:07:40;30.80;77.20
15481;DHT22;7842;50.904;6.670;2022-08-11T12:10:25;30.70;75.60
15481;DHT22;7842;50.904;6.670;2022-08-11T12:12:51;30.50;74.70
15481;DHT22;7842;50.904;6.670;2022-08-11T12:15:36;30.50;75.40
15481;DHT22;7842;50.904;6.670;2022-08-11T12:18:02;30.60;75.20
15481;DHT22;7842;50.904;6.670;2022-08-11T12:20:28;30.50;74.20
15481;DHT22;7842;50.904;6.670;2022-08-11T12:22:55;30.30;73.30
15481;DHT22;7842;50.904;6.670;2022-08-11T12:25:41;30.50;75.00
15481;DHT22;7842;50.904;6.670;2022-08-11T12:28:27;30.40;74.30
15481;DHT22;7842;50.904;6.670;2022-08-11T12:30:53;30.60;73.80
15481;DHT22;7842;50.904;6.670;2022-08-11T12:33:19;30.70;74.30
15481;DHT22;7842;50.904;6.670;2022-08-11T12:35:48;31.00;74.10
15481;DHT22;7842;50.904;6.670;2022-08-11T12:38:17;31.00;73.10
15481;DHT22;7842;50.904;6.670;2022-08-11T12:40:46;31.00;72.50
15481;DHT22;7842;50.904;6.670;2022-08-11T12:43:31;30.90;73.30
15481;DHT22;7842;50.904;6.670;2022-08-11T12:46:20;30.80;72.30
15481;DHT22;7842;50.904;6.670;2022-08-11T12:48:49;30.70;73.60
15481;DHT22;7842;50.904;6.670;2022-08-11T12:51:41;30.50;72.60
15481;DHT22;7842;50.904;6.670;2022-08-11T12:57:01;30.90;73.00
15481;DHT22;7842;50.904;6.670;2022-08-11T12:59:46;30.90;73.70
15481;DHT22;7842;50.904;6.670;2022-08-11T13:02:31;31.20;73.40
15481;DHT22;7842;50.904;6.670;2022-08-11T13:05:17;31.40;71.80
15481;DHT22;7842;50.904;6.670;2022-08-11T13:07:44;31.40;72.00
15481;DHT22;7842;50.904;6.670;2022-08-11T13:10:13;31.30;70.80
15481;DHT22;7842;50.904;6.670;2022-08-11T13:12:40;31.30;71.40
15481;DHT22;7842;50.904;6.670;2022-08-11T13:17:40;31.00;70.80
15481;DHT22;7842;50.904;6.670;2022-08-11T13:20:09;31.00;70.30
15481;DHT22;7842;50.904;6.670;2022-08-11T13:22:37;31.10;69.70
15481;DHT22;7842;50.904;6.670;2022-08-11T13:25:04;31.40;69.40
15481;DHT22;7842;50.904;6.670;2022-08-11T13:27:30;31.30;69.50
15481;DHT22;7842;50.904;6.670;2022-08-11T13:29:57;31.20;69.10
15481;DHT22;7842;50.904;6.670;2022-08-11T13:32:43;31.00;69.00
15481;DHT22;7842;50.904;6.670;2022-08-11T13:35:11;31.20;68.40
15481;DHT22;7842;50.904;6.670;2022-08-11T13:37:43;31.40;69.90
15481;DHT22;7842;50.904;6.670;2022-08-11T13:40:10;31.70;70.00
15481;DHT22;7842;50.904;6.670;2022-08-11T13:42:39;32.00;68.60
15481;DHT22;7842;50.904;6.670;2022-08-11T13:45:09;32.00;66.60
15481;DHT22;7842;50.904;6.670;2022-08-11T13:47:36;31.60;67.60
15481;DHT22;7842;50.904;6.670;2022-08-11T13:50:05;31.70;67.70
15481;DHT22;7842;50.904;6.670;2022-08-11T13:52:35;31.50;67.40
15481;DHT22;7842;50.904;6.670;2022-08-11T13:55:08;31.40;67.00
15481;DHT22;7842;50.904;6.670;2022-08-11T13:57:55;31.40;67.50
15481;DHT22;7842;50.904;6.670;2022-08-11T14:00:21;31.40;66.60
15481;DHT22;7842;50.904;6.670;2022-08-11T14:02:48;31.40;67.50
15481;DHT22;7842;50.904;6.670;2022-08-11T14:05:25;31.70;66.50
15481;DHT22;7842;50.904;6.670;2022-08-11T14:07:54;31.40;66.20
15481;DHT22;7842;50.904;6.670;2022-08-11T14:10:27;31.50;66.30
15481;DHT22;7842;50.904;6.670;2022-08-11T14:13:02;31.40;65.60
15481;DHT22;7842;50.904;6.670;2022-08-11T14:15:48;31.50;66.00
15481;DHT22;7842;50.904;6.670;2022-08-11T14:18:32;31.50;66.00
15481;DHT22;7842;50.904;6.670;2022-08-11T14:21:01;31.40;66.90
15481;DHT22;7842;50.904;6.670;2022-08-11T14:23:51;31.40;65.50
15481;DHT22;7842;50.904;6.670;2022-08-11T14:26:24;31.50;66.10
15481;DHT22;7842;50.904;6.670;2022-08-11T14:28:59;31.70;65.30
15481;DHT22;7842;50.904;6.670;2022-08-11T14:31:29;31.70;65.90
15481;DHT22;7842;50.904;6.670;2022-08-11T14:34:00;31.70;64.10
15481;DHT22;7842;50.904;6.670;2022-08-11T14:36:31;31.70;66.20
15481;DHT22;7842;50.904;6.670;2022-08-11T14:39:05;32.00;65.30
15481;DHT22;7842;50.904;6.670;2022-08-11T14:41:31;32.10;65.50
15481;DHT22;7842;50.904;6.670;2022-08-11T14:44:19;32.10;63.30
15481;DHT22;7842;50.904;6.670;2022-08-11T14:47:04;32.40;64.00
15481;DHT22;7842;50.904;6.670;2022-08-11T14:49:41;32.10;64.30
15481;DHT22;7842;50.904;6.670;2022-08-11T14:52:12;32.50;65.30
15481;DHT22;7842;50.904;6.670;2022-08-11T14:54:41;32.20;62.80
15481;DHT22;7842;50.904;6.670;2022-08-11T14:57:30;31.80;64.10
15481;DHT22;7842;50.904;6.670;2022-08-11T15:00:03;31.70;64.70
15481;DHT22;7842;50.904;6.670;2022-08-11T15:02:32;31.60;63.90
15481;DHT22;7842;50.904;6.670;2022-08-11T15:05:19;31.70;65.00
15481;DHT22;7842;50.904;6.670;2022-08-11T15:07:45;31.80;64.20
15481;DHT22;7842;50.904;6.670;2022-08-11T15:10:11;31.90;64.20
15481;DHT22;7842;50.904;6.670;2022-08-11T15:12:39;32.20;61.90
15481;DHT22;7842;50.904;6.670;2022-08-11T15:15:07;32.20;63.20
15481;DHT22;7842;50.904;6.670;2022-08-11T15:17:54;32.30;62.60
15481;DHT22;7842;50.904;6.670;2022-08-11T15:20:20;32.40;62.00
15481;DHT22;7842;50.904;6.670;2022-08-11T15:23:08;32.50;62.70
15481;DHT22;7842;50.904;6.670;2022-08-11T15:26:06;32.30;63.50
15481;DHT22;7842;50.904;6.670;2022-08-11T15:28:39;32.30;63.30
15481;DHT22;7842;50.904;6.670;2022-08-11T15:31:27;32.30;64.30
15481;DHT22;7842;50.904;6.670;2022-08-11T15:34:05;32.50;63.20
15481;DHT22;7842;50.904;6.670;2022-08-11T15:36:55;32.40;62.40
15481;DHT22;7842;50.904;6.670;2022-08-11T15:39:55;32.40;63.30
15481;DHT22;7842;50.904;6.670;2022-08-11T15:42:50;32.30;63.00
15481;DHT22;7842;50.904;6.670;2022-08-11T15:45:38;32.30;62.90
15481;DHT22;7842;50.904;6.670;2022-08-11T15:48:18;32.50;62.70
15481;DHT22;7842;50.904;6.670;2022-08-11T15:50:51;32.30;62.80
15481;DHT22;7842;50.904;6.670;2022-08-11T15:53:25;32.40;63.30
15481;DHT22;7842;50.904;6.670;2022-08-11T15:55:53;32.40;61.70
15481;DHT22;7842;50.904;6.670;2022-08-11T15:58:19;32.30;61.50
15481;DHT22;7842;50.904;6.670;2022-08-11T16:01:05;32.40;62.50
15481;DHT22;7842;50.904;6.670;2022-08-11T16:04:02;32.30;61.40
15481;DHT22;7842;50.904;6.670;2022-08-11T16:06:52;32.30;62.70
15481;DHT22;7842;50.904;6.670;2022-08-11T16:09:30;32.30;61.20
15481;DHT22;7842;50.904;6.670;2022-08-11T16:12:04;32.20;61.30
15481;DHT22;7842;50.904;6.670;2022-08-11T16:14:40;32.30;61.00
15481;DHT22;7842;50.904;6.670;2022-08-11T16:17:27;32.20;59.80
15481;DHT22;7842;50.904;6.670;2022-08-11T16:19:54;32.20;59.20
15481;DHT22;7842;50.904;6.670;2022-08-11T16:22:25;32.20;59.40
15481;DHT22;7842;50.904;6.670;2022-08-11T16:25:08;32.00;59.70
15481;DHT22;7842;50.904;6.670;2022-08-11T16:30:03;32.30;59.70
15481;DHT22;7842;50.904;6.670;2022-08-11T16:32:32;32.30;59.40
15481;DHT22;7842;50.904;6.670;2022-08-11T16:40:33;32.60;58.90
15481;DHT22;7842;50.904;6.670;2022-08-11T16:58:20;32.30;59.50
15481;DHT22;7842;50.904;6.670;2022-08-11T17:06:24;32.10;59.80
15481;DHT22;7842;50.904;6.670;2022-08-11T17:38:04;31.50;60.90
15481;DHT22;7842;50.904;6.670;2022-08-11T18:09:13;30.70;65.30
15481;DHT22;7842;50.904;6.670;2022-08-11T18:11:59;30.60;66.20
15481;DHT22;7842;50.904;6.670;2022-08-11T18:14:47;30.50;67.40
15481;DHT22;7842;50.904;6.670;2022-08-11T18:17:31;30.30;67.50
15481;DHT22;7842;50.904;6.670;2022-08-11T18:20:17;30.30;67.60
15481;DHT22;7842;50.904;6.670;2022-08-11T18:23:04;30.20;68.00
15481;DHT22;7842;50.904;6.670;2022-08-11T18:25:51;30.10;69.20
15481;DHT22;7842;50.904;6.670;2022-08-11T18:28:44;30.00;68.60
15481;DHT22;7842;50.904;6.670;2022-08-11T18:31:32;29.90;68.40
15481;DHT22;7842;50.904;6.670;2022-08-11T18:34:32;29.80;68.90
15481;DHT22;7842;50.904;6.670;2022-08-11T18:37:25;29.70;69.60
15481;DHT22;7842;50.904;6.670;2022-08-11T18:40:15;29.60;69.30
15481;DHT22;7842;50.904;6.670;2022-08-11T18:43:04;29.50;69.90
15481;DHT22;7842;50.904;6.670;2022-08-11T18:45:52;29.30;70.50
15481;DHT22;7842;50.904;6.670;2022-08-11T18:48:47;29.20;71.20
15481;DHT22;7842;50.904;6.670;2022-08-11T18:51:32;29.10;70.90
15481;DHT22;7842;50.904;6.670;2022-08-11T18:54:18;28.90;71.50
15481;DHT22;7842;50.904;6.670;2022-08-11T18:57:05;28.80;71.70
15481;DHT22;7842;50.904;6.670;2022-08-11T18:59:51;28.70;72.40
15481;DHT22;7842;50.904;6.670;2022-08-11T19:02:38;28.70;72.30
15481;DHT22;7842;50.904;6.670;2022-08-11T19:05:23;28.70;72.50
15481;DHT22;7842;50.904;6.670;2022-08-11T19:08:08;28.60;72.50
15481;DHT22;7842;50.904;6.670;2022-08-11T19:10:56;28.50;73.00
15481;DHT22;7842;50.904;6.670;2022-08-11T19:13:41;28.40;72.90
15481;DHT22;7842;50.904;6.670;2022-08-11T19:16:29;28.30;73.60
15481;DHT22;7842;50.904;6.670;2022-08-11T19:19:14;28.20;74.00
15481;DHT22;7842;50.904;6.670;2022-08-11T19:22:01;28.20;74.20
15481;DHT22;7842;50.904;6.670;2022-08-11T19:24:47;28.10;74.50
15481;DHT22;7842;50.904;6.670;2022-08-11T19:27:34;28.10;75.20
15481;DHT22;7842;50.904;6.670;2022-08-11T19:30:20;27.90;75.40
15481;DHT22;7842;50.904;6.670;2022-08-11T19:33:04;27.70;76.00
15481;DHT22;7842;50.904;6.670;2022-08-11T19:35:48;27.60;76.60
15481;DHT22;7842;50.904;6.670;2022-08-11T19:38:33;27.60;77.10
15481;DHT22;7842;50.904;6.670;2022-08-11T19:41:19;27.40;77.30
15481;DHT22;7842;50.904;6.670;2022-08-11T19:44:06;27.40;77.80
15481;DHT22;7842;50.904;6.670;2022-08-11T19:46:51;27.40;78.20
15481;DHT22;7842;50.904;6.670;2022-08-11T19:49:37;27.30;78.50
15481;DHT22;7842;50.904;6.670;2022-08-11T19:52:23;27.30;78.90
15481;DHT22;7842;50.904;6.670;2022-08-11T19:55:08;27.30;79.00
15481;DHT22;7842;50.904;6.670;2022-08-11T19:57:54;27.10;79.40
15481;DHT22;7842;50.904;6.670;2022-08-11T20:00:40;27.10;79.50
15481;DHT22;7842;50.904;6.670;2022-08-11T20:03:24;27.00;80.10
15481;DHT22;7842;50.904;6.670;2022-08-11T20:06:10;26.80;80.50
15481;DHT22;7842;50.904;6.670;2022-08-11T20:08:58;26.80;80.90
15481;DHT22;7842;50.904;6.670;2022-08-11T20:11:45;26.80;81.10
15481;DHT22;7842;50.904;6.670;2022-08-11T20:14:33;26.80;81.30
15481;DHT22;7842;50.904;6.670;2022-08-11T20:17:21;26.70;81.70
15481;DHT22;7842;50.904;6.670;2022-08-11T20:20:07;26.70;81.70
15481;DHT22;7842;50.904;6.670;2022-08-11T20:22:54;26.60;82.20
15481;DHT22;7842;50.904;6.670;2022-08-11T20:25:40;26.60;82.50
15481;DHT22;7842;50.904;6.670;2022-08-11T20:28:26;26.50;82.70
15481;DHT22;7842;50.904;6.670;2022-08-11T20:31:11;26.50;83.00
15481;DHT22;7842;50.904;6.670;2022-08-11T20:33:58;26.40;83.40
15481;DHT22;7842;50.904;6.670;2022-08-11T20:36:44;26.30;84.00
15481;DHT22;7842;50.904;6.670;2022-08-11T20:39:30;26.30;84.50
15481;DHT22;7842;50.904;6.670;2022-08-11T20:42:15;26.30;84.90
15481;DHT22;7842;50.904;6.670;2022-08-11T20:45:02;26.20;85.40
15481;DHT22;7842;50.904;6.670;2022-08-11T20:47:47;26.20;85.70
15481;DHT22;7842;50.904;6.670;2022-08-11T20:50:33;26.10;85.90
15481;DHT22;7842;50.904;6.670;2022-08-11T20:53:19;26.00;86.60
15481;DHT22;7842;50.904;6.670;2022-08-11T20:56:05;25.90;87.00
15481;DHT22;7842;50.904;6.670;2022-08-11T20:58:51;25.90;87.50
15481;DHT22;7842;50.904;6.670;2022-08-11T21:01:36;25.80;88.00
15481;DHT22;7842;50.904;6.670;2022-08-11T21:04:22;25.80;88.40
15481;DHT22;7842;50.904;6.670;2022-08-11T21:07:07;25.70;88.80
15481;DHT22;7842;50.904;6.670;2022-08-11T21:09:52;25.60;89.10
15481;DHT22;7842;50.904;6.670;2022-08-11T21:12:39;25.70;89.40
15481;DHT22;7842;50.904;6.670;2022-08-11T21:15:29;25.60;90.00
15481;DHT22;7842;50.904;6.670;2022-08-11T21:18:16;25.50;90.00
15481;DHT22;7842;50.904;6.670;2022-08-11T21:21:06;25.50;90.30
15481;DHT22;7842;50.904;6.670;2022-08-11T21:23:52;25.50;90.30
15481;DHT22;7842;50.904;6.670;2022-08-11T21:26:40;25.50;90.60
15481;DHT22;7842;50.904;6.670;2022-08-11T21:29:26;25.40;90.70
15481;DHT22;7842;50.904;6.670;2022-08-11T21:32:13;25.30;90.90
15481;DHT22;7842;50.904;6.670;2022-08-11T21:34:58;25.30;91.20
15481;DHT22;7842;50.904;6.670;2022-08-11T21:37:43;25.20;91.20
15481;DHT22;7842;50.904;6.670;2022-08-11T21:40:29;25.20;91.30
15481;DHT22;7842;50.904;6.670;2022-08-11T21:43:16;25.10;91.60
15481;DHT22;7842;50.904;6.670;2022-08-11T21:46:02;25.00;91.80
15481;DHT22;7842;50.904;6.670;2022-08-11T21:48:48;25.00;92.10
15481;DHT22;7842;50.904;6.670;2022-08-11T21:51:33;24.90;92.40
15481;DHT22;7842;50.904;6.670;2022-08-11T21:54:17;24.90;92.70
15481;DHT22;7842;50.904;6.670;2022-08-11T21:57:02;24.80;92.80
15481;DHT22;7842;50.904;6.670;2022-08-11T21:59:57;24.80;93.20
15481;DHT22;7842;50.904;6.670;2022-08-11T22:02:43;24.70;93.30
15481;DHT22;7842;50.904;6.670;2022-08-11T22:05:29;24.70;93.60
15481;DHT22;7842;50.904;6.670;2022-08-11T22:08:15;24.60;93.80
15481;DHT22;7842;50.904;6.670;2022-08-11T22:11:00;24.50;94.00
15481;DHT22;7842;50.904;6.670;2022-08-11T22:13:44;24.50;94.20
15481;DHT22;7842;50.904;6.670;2022-08-11T22:16:29;24.50;94.40
15481;DHT22;7842;50.904;6.670;2022-08-11T22:19:14;24.40;94.60
15481;DHT22;7842;50.904;6.670;2022-08-11T22:22:00;24.40;94.80
15481;DHT22;7842;50.904;6.670;2022-08-11T22:24:44;24.40;95.20
15481;DHT22;7842;50.904;6.670;2022-08-11T22:27:29;24.40;95.30
15481;DHT22;7842;50.904;6.670;2022-08-11T22:30:14;24.40;95.80
15481;DHT22;7842;50.904;6.670;2022-08-11T22:33:00;24.40;96.40
15481;DHT22;7842;50.904;6.670;2022-08-11T22:35:46;24.30;96.90
15481;DHT22;7842;50.904;6.670;2022-08-11T22:38:33;24.30;97.30
15481;DHT22;7842;50.904;6.670;2022-08-11T22:41:21;24.30;97.70
15481;DHT22;7842;50.904;6.670;2022-08-11T22:44:06;24.20;98.00
15481;DHT22;7842;50.904;6.670;2022-08-11T22:46:53;24.10;98.50
15481;DHT22;7842;50.904;6.670;2022-08-11T22:49:38;24.10;99.10
15481;DHT22;7842;50.904;6.670;2022-08-11T22:52:23;24.00;99.80
15481;DHT22;7842;50.904;6.670;2022-08-11T22:55:08;23.90;99.90
15481;DHT22;7842;50.904;6.670;2022-08-11T22:57:54;23.90;99.90
15481;DHT22;7842;50.904;6.670;2022-08-11T23:00:39;23.70;99.90
15481;DHT22;7842;50.904;6.670;2022-08-11T23:03:24;23.30;99.90
15481;DHT22;7842;50.904;6.670;2022-08-11T23:06:09;23.30;99.90
15481;DHT22;7842;50.904;6.670;2022-08-11T23:08:55;23.10;99.90
15481;DHT22;7842;50.904;6.670;2022-08-11T23:11:40;22.90;99.90
15481;DHT22;7842;50.904;6.670;2022-08-11T23:14:25;22.90;99.90
15481;DHT22;7842;50.904;6.670;2022-08-11T23:17:11;22.90;99.90
15481;DHT22;7842;50.904;6.670;2022-08-11T23:19:56;22.80;99.90
15481;DHT22;7842;50.904;6.670;2022-08-11T23:22:42;22.80;99.90
15481;DHT22;7842;50.904;6.670;2022-08-11T23:25:28;22.70;99.90
15481;DHT22;7842;50.904;6.670;2022-08-11T23:28:14;22.70;99.90
15481;DHT22;7842;50.904;6.670;2022-08-11T23:30:59;22.60;99.90
15481;DHT22;7842;50.904;6.670;2022-08-11T23:33:46;22.50;99.90
15481;DHT22;7842;50.904;6.670;2022-08-11T23:36:33;22.50;99.90
15481;DHT22;7842;50.904;6.670;2022-08-11T23:39:17;22.50;99.90
15481;DHT22;7842;50.904;6.670;2022-08-11T23:42:02;22.40;99.90
15481;DHT22;7842;50.904;6.670;2022-08-11T23:44:47;22.30;99.90
15481;DHT22;7842;50.904;6.670;2022-08-11T23:47:31;22.20;99.90
15481;DHT22;7842;50.904;6.670;2022-08-11T23:50:16;22.20;99.90
15481;DHT22;7842;50.904;6.670;2022-08-11T23:53:01;22.10;99.90
15481;DHT22;7842;50.904;6.670;2022-08-11T23:55:46;22.00;99.90
15481;DHT22;7842;50.904;6.670;2022-08-11T23:58:31;22.10;99.90
